createdAt,value
2023-02-11T00:02:01.609Z,139.63
2023-02-11T00:05:04.293Z,146.43
2023-02-11T00:08:06.504Z,45.20
2023-02-11T00:11:14.912Z,57.40
2023-02-11T00:14:17.006Z,30.52
2023-02-11T00:17:19.144Z,24.80
2023-02-11T00:20:21.354Z,25.20
2023-02-11T00:23:23.422Z,24.55
2023-02-11T00:26:28.304Z,25.05
2023-02-11T00:29:30.555Z,23.83
2023-02-11T00:32:32.839Z,25.65
2023-02-11T00:35:37.856Z,25.75
2023-02-11T00:38:40.752Z,25.20
2023-02-11T00:41:42.809Z,24.83
2023-02-11T00:44:44.968Z,26.02
2023-02-11T00:47:47.293Z,27.85
2023-02-11T00:50:49.403Z,23.77
2023-02-11T00:53:51.881Z,25.02
2023-02-11T00:56:54.023Z,24.88
2023-02-11T00:59:56.163Z,24.30
2023-02-11T01:02:58.282Z,23.88
2023-02-11T01:06:00.688Z,23.90
2023-02-11T01:09:02.826Z,23.10
2023-02-11T01:12:05.145Z,25.63
2023-02-11T01:15:09.012Z,23.77
2023-02-11T01:18:11.364Z,24.15
2023-02-11T01:21:13.753Z,25.42
2023-02-11T01:24:15.794Z,22.92
2023-02-11T01:27:17.954Z,26.58
2023-02-11T01:30:20.194Z,26.50
2023-02-11T01:33:23.353Z,23.90
2023-02-11T01:36:25.590Z,25.65
2023-02-11T01:39:27.894Z,24.50
2023-02-11T01:42:30.519Z,24.80
2023-02-11T01:46:12.466Z,24.73
2023-02-11T01:49:38.720Z,24.80
2023-02-11T01:52:42.641Z,25.02
2023-02-11T01:56:03.459Z,25.65
2023-02-11T01:59:11.065Z,24.73
2023-02-11T02:02:15.128Z,24.25
2023-02-11T02:05:23.576Z,23.67
2023-02-11T02:08:43.888Z,24.75
2023-02-11T02:11:46.258Z,25.15
2023-02-11T02:14:48.431Z,25.25
2023-02-11T02:18:15.978Z,26.00
2023-02-11T02:21:41.104Z,25.05
2023-02-11T02:25:05.095Z,24.55
2023-02-11T02:28:37.729Z,23.35
2023-02-11T02:32:10.444Z,22.98
2023-02-11T02:35:29.578Z,23.88
2023-02-11T02:38:40.828Z,25.15
2023-02-11T02:41:44.139Z,24.75
2023-02-11T02:44:53.354Z,25.92
2023-02-11T02:47:55.711Z,25.50
2023-02-11T02:51:03.911Z,24.65
2023-02-11T02:54:24.458Z,24.48
2023-02-11T02:57:47.262Z,25.60
2023-02-11T03:01:04.823Z,24.67
2023-02-11T03:04:27.180Z,24.70
2023-02-11T03:07:45.954Z,26.55
2023-02-11T03:10:51.556Z,24.85
2023-02-11T03:13:55.936Z,23.73
2023-02-11T03:17:01.375Z,24.65
2023-02-11T03:20:06.945Z,25.73
2023-02-11T03:23:17.046Z,25.05
2023-02-11T03:26:28.464Z,25.10
2023-02-11T03:30:10.409Z,23.10
2023-02-11T03:33:50.244Z,24.45
2023-02-11T03:37:01.822Z,24.10
2023-02-11T03:40:10.095Z,24.75
2023-02-11T03:43:25.214Z,23.55
2023-02-11T03:46:37.496Z,24.83
2023-02-11T03:49:40.601Z,24.77
2023-02-11T03:52:43.358Z,26.85
2023-02-11T03:55:47.102Z,26.42
2023-02-11T03:58:49.890Z,26.63
2023-02-11T04:01:52.578Z,25.02
2023-02-11T04:04:54.914Z,24.33
2023-02-11T04:07:57.067Z,25.73
2023-02-11T04:10:59.432Z,26.15
2023-02-11T04:14:01.667Z,26.63
2023-02-11T04:17:04.367Z,26.13
2023-02-11T04:20:07.735Z,25.00
2023-02-11T04:23:10.277Z,25.38
2023-02-11T04:26:12.386Z,25.23
2023-02-11T04:29:14.940Z,24.52
2023-02-11T04:32:17.335Z,27.08
2023-02-11T04:35:19.555Z,26.63
2023-02-11T04:38:24.114Z,26.02
2023-02-11T04:41:26.287Z,26.52
2023-02-11T04:44:28.456Z,27.98
2023-02-11T04:47:30.737Z,27.95
2023-02-11T04:50:32.840Z,26.67
2023-02-11T04:53:35.018Z,27.20
2023-02-11T04:56:37.365Z,26.83
2023-02-11T04:59:40.721Z,28.40
2023-02-11T05:02:42.998Z,28.35
2023-02-11T05:05:45.181Z,27.88
2023-02-11T05:08:47.427Z,27.88
2023-02-11T05:11:50.204Z,28.00
2023-02-11T05:14:52.340Z,28.27
2023-02-11T05:17:54.604Z,27.42
2023-02-11T05:20:56.957Z,27.15
2023-02-11T05:23:59.235Z,27.60
2023-02-11T05:27:02.044Z,29.17
2023-02-11T05:30:05.581Z,26.90
2023-02-11T05:33:07.655Z,27.42
2023-02-11T05:36:12.336Z,29.23
2023-02-11T05:39:14.573Z,28.38
2023-02-11T05:42:16.777Z,28.88
2023-02-11T05:45:18.929Z,28.73
2023-02-11T05:48:21.212Z,28.85
2023-02-11T05:51:25.305Z,27.20
2023-02-11T05:54:27.497Z,27.77
2023-02-11T05:57:29.677Z,28.40
2023-02-11T06:00:31.769Z,29.15
2023-02-11T06:03:33.948Z,28.02
2023-02-11T06:06:36.151Z,27.75
2023-02-11T06:09:38.291Z,27.85
2023-02-11T06:12:40.412Z,29.77
2023-02-11T06:15:42.477Z,28.70
2023-02-11T06:18:44.638Z,30.23
2023-02-11T06:21:46.709Z,29.02
2023-02-11T06:25:01.002Z,30.38
2023-02-11T06:28:04.255Z,28.80
2023-02-11T06:31:07.659Z,28.13
2023-02-11T06:34:10.492Z,28.40
2023-02-11T06:37:12.682Z,28.77
2023-02-11T06:40:14.832Z,28.23
2023-02-11T06:43:17.056Z,29.80
2023-02-11T06:46:19.478Z,29.33
2023-02-11T06:49:21.592Z,41.28
2023-02-11T06:52:23.610Z,34.25
2023-02-11T06:55:26.062Z,34.15
2023-02-11T06:58:28.165Z,31.20
2023-02-11T07:01:30.449Z,34.00
2023-02-11T07:04:32.684Z,35.20
2023-02-11T07:07:34.814Z,40.17
2023-02-11T07:10:37.149Z,38.00
2023-02-11T07:13:39.576Z,38.95
2023-02-11T07:16:41.750Z,40.28
2023-02-11T07:19:44.069Z,45.35
2023-02-11T07:22:46.413Z,44.75
2023-02-11T07:25:48.703Z,50.10
2023-02-11T07:28:52.456Z,48.58
2023-02-11T07:31:54.812Z,43.28
2023-02-11T07:34:57.676Z,42.97
2023-02-11T07:37:59.901Z,40.95
2023-02-11T07:41:06.928Z,43.45
2023-02-11T07:44:09.294Z,44.85
2023-02-11T07:47:11.334Z,49.33
2023-02-11T07:50:13.733Z,50.30
2023-02-11T07:53:16.230Z,50.72
2023-02-11T07:56:19.805Z,53.80
2023-02-11T07:59:22.368Z,53.30
2023-02-11T08:02:24.657Z,55.42
2023-02-11T08:05:27.070Z,54.30
2023-02-11T08:08:29.147Z,55.92
2023-02-11T08:11:31.722Z,55.38
2023-02-11T08:14:33.870Z,54.63
2023-02-11T08:17:37.042Z,53.13
2023-02-11T08:20:39.305Z,51.30
2023-02-11T08:23:43.522Z,53.22
2023-02-11T08:26:45.832Z,54.55
2023-02-11T08:29:47.986Z,54.40
2023-02-11T08:32:50.231Z,55.63
2023-02-11T08:35:52.306Z,53.55
2023-02-11T08:39:08.603Z,51.55
2023-02-11T08:42:18.518Z,49.25
2023-02-11T08:45:20.646Z,50.33
2023-02-11T08:48:23.017Z,50.55
2023-02-11T08:51:27.929Z,48.33
2023-02-11T08:54:33.329Z,49.88
2023-02-11T08:57:35.492Z,48.20
2023-02-11T09:00:37.560Z,65.70
2023-02-11T09:03:40.436Z,53.13
2023-02-11T09:06:42.612Z,51.08
2023-02-11T09:09:44.671Z,47.22
2023-02-11T09:12:46.837Z,45.00
2023-02-11T09:15:49.002Z,49.58
2023-02-11T09:18:52.118Z,46.22
2023-02-11T09:21:54.335Z,44.75
2023-02-11T09:24:56.809Z,45.28
2023-02-11T09:27:58.874Z,46.05
2023-02-11T09:31:06.760Z,40.15
2023-02-11T09:34:11.128Z,41.10
2023-02-11T09:37:13.254Z,38.47
2023-02-11T09:40:16.350Z,39.42
2023-02-11T09:43:22.368Z,41.72
2023-02-11T09:46:27.320Z,37.28
2023-02-11T09:49:48.418Z,41.60
2023-02-11T09:52:59.948Z,40.55
2023-02-11T09:56:10.586Z,39.95
2023-02-11T09:59:17.668Z,38.95
2023-02-11T10:02:49.487Z,38.33
2023-02-11T10:05:51.457Z,39.45
2023-02-11T10:09:04.798Z,41.53
2023-02-11T10:12:16.191Z,42.25
2023-02-11T10:15:24.193Z,40.08
2023-02-11T10:18:35.116Z,58.88
2023-02-11T10:22:03.896Z,40.55
2023-02-11T10:25:25.709Z,47.70
2023-02-11T10:28:34.030Z,43.85
2023-02-11T10:31:39.943Z,39.45
2023-02-11T10:34:42.688Z,34.92
2023-02-11T10:37:45.327Z,35.35
2023-02-11T10:40:47.457Z,37.80
2023-02-11T10:43:50.519Z,37.90
2023-02-11T10:46:54.530Z,39.92
2023-02-11T10:50:03.323Z,35.55
2023-02-11T10:53:21.050Z,32.87
2023-02-11T10:56:27.354Z,33.42
2023-02-11T10:59:40.391Z,37.58
2023-02-11T11:02:44.594Z,42.25
2023-02-11T11:05:51.589Z,39.88
2023-02-11T11:08:53.684Z,43.58
2023-02-11T11:11:55.795Z,36.08
2023-02-11T11:15:13.673Z,49.08
2023-02-11T11:18:23.685Z,36.83
2023-02-11T11:21:34.597Z,37.38
2023-02-11T11:24:57.128Z,34.08
2023-02-11T11:28:01.129Z,34.90
2023-02-11T11:31:03.721Z,36.03
2023-02-11T11:34:42.121Z,35.33
2023-02-11T11:37:45.785Z,36.00
2023-02-11T11:41:18.082Z,33.85
2023-02-11T11:44:22.978Z,33.05
2023-02-11T11:47:43.696Z,32.60
2023-02-11T11:51:12.734Z,31.45
2023-02-11T11:54:19.605Z,33.88
2023-02-11T11:57:28.743Z,35.63
2023-02-11T12:04:08.662Z,32.63
2023-02-11T12:07:25.799Z,34.97
2023-02-11T12:10:39.397Z,34.60
2023-02-11T12:14:08.120Z,33.70
2023-02-11T12:17:28.529Z,35.83
2023-02-11T12:23:53.404Z,37.97
2023-02-11T12:26:58.701Z,38.10
2023-02-11T12:30:23.108Z,35.55
2023-02-11T12:33:54.883Z,35.08
2023-02-11T12:37:02.824Z,36.47
2023-02-11T12:40:34.777Z,40.25
2023-02-11T12:43:39.636Z,32.90
2023-02-11T12:47:11.913Z,33.20
2023-02-11T12:50:26.448Z,32.60
2023-02-11T12:53:49.645Z,32.03
2023-02-11T12:56:51.888Z,31.77
2023-02-11T13:00:00.485Z,31.92
2023-02-11T13:03:43.095Z,33.22
2023-02-11T13:06:51.903Z,31.88
2023-02-11T13:10:28.325Z,33.83
2023-02-11T13:13:48.736Z,26.75
2023-02-11T13:16:51.669Z,31.58
2023-02-11T13:20:01.135Z,38.13
2023-02-11T13:23:27.819Z,34.53
2023-02-11T13:26:50.611Z,33.08
2023-02-11T13:30:24.373Z,36.75
2023-02-11T13:33:37.644Z,32.45
2023-02-11T13:36:40.217Z,33.08
2023-02-11T13:39:42.813Z,34.42
2023-02-11T13:42:57.632Z,35.45
2023-02-11T13:46:11.679Z,30.50
2023-02-11T13:49:42.221Z,29.10
2023-02-11T13:52:44.978Z,30.50
2023-02-11T13:55:53.177Z,29.85
2023-02-11T13:58:55.915Z,29.17
2023-02-11T14:02:24.623Z,32.53
2023-02-11T14:05:48.968Z,32.20
2023-02-11T14:09:10.151Z,31.27
2023-02-11T14:12:32.120Z,28.73
2023-02-11T14:15:42.565Z,37.20
2023-02-11T14:18:45.050Z,30.63
2023-02-11T14:21:48.008Z,31.48
2023-02-11T14:25:02.219Z,29.92
2023-02-11T14:28:26.864Z,29.67
2023-02-11T14:31:44.257Z,30.92
2023-02-11T14:35:15.736Z,32.10
2023-02-11T14:38:48.626Z,28.88
2023-02-11T14:41:51.553Z,30.63
2023-02-11T14:44:59.491Z,44.78
2023-02-11T14:48:13.835Z,29.05
2023-02-11T14:51:27.079Z,33.08
2023-02-11T14:54:31.402Z,32.22
2023-02-11T14:57:35.638Z,29.65
2023-02-11T15:00:52.437Z,39.42
2023-02-11T15:03:59.877Z,31.88
2023-02-11T15:07:08.601Z,34.10
2023-02-11T15:10:27.831Z,32.55
2023-02-11T15:13:33.175Z,44.30
2023-02-11T15:16:44.707Z,37.13
2023-02-11T15:19:51.231Z,33.13
2023-02-11T15:23:03.743Z,41.88
2023-02-11T15:26:14.824Z,51.03
2023-02-11T15:29:17.743Z,65.72
2023-02-11T15:32:25.199Z,36.72
2023-02-11T15:35:37.425Z,35.00
2023-02-11T15:38:41.251Z,62.75
2023-02-11T15:41:45.007Z,45.33
2023-02-11T15:44:56.763Z,39.33
2023-02-11T15:48:09.832Z,34.88
2023-02-11T15:51:35.497Z,43.33
2023-02-11T15:54:38.612Z,50.80
2023-02-11T15:57:54.840Z,47.30
2023-02-11T16:01:00.568Z,55.47
2023-02-11T16:04:05.666Z,45.25
2023-02-11T16:07:39.613Z,33.70
2023-02-11T16:10:58.817Z,51.72
2023-02-11T16:14:19.038Z,33.33
2023-02-11T16:17:26.832Z,34.60
2023-02-11T16:20:30.143Z,33.30
2023-02-11T16:23:38.561Z,34.92
2023-02-11T16:26:47.529Z,32.85
2023-02-11T16:29:52.004Z,32.97
2023-02-11T16:32:55.378Z,38.70
2023-02-11T16:36:02.596Z,41.90
2023-02-11T16:39:05.921Z,36.72
2023-02-11T16:42:10.950Z,31.80
2023-02-11T16:45:16.170Z,31.98
2023-02-11T16:48:21.123Z,32.67
2023-02-11T16:51:25.004Z,32.83
2023-02-11T16:54:30.028Z,32.63
2023-02-11T16:57:33.720Z,32.83
2023-02-11T17:00:37.215Z,37.65
2023-02-11T17:03:44.081Z,33.55
2023-02-11T17:06:48.436Z,34.03
2023-02-11T17:09:52.589Z,33.45
2023-02-11T17:12:55.788Z,34.70
2023-02-11T17:15:59.477Z,32.72
2023-02-11T17:19:05.239Z,32.92
2023-02-11T17:22:10.773Z,32.88
2023-02-11T17:25:18.491Z,34.08
2023-02-11T17:28:23.180Z,39.90
2023-02-11T17:31:26.775Z,33.90
2023-02-11T17:34:30.235Z,32.85
2023-02-11T17:37:33.940Z,31.80
2023-02-11T17:40:38.628Z,32.90
2023-02-11T17:43:42.274Z,31.95
2023-02-11T17:46:46.513Z,32.00
2023-02-11T17:49:50.260Z,31.95
2023-02-11T17:52:54.943Z,34.00
2023-02-11T17:55:59.283Z,32.08
2023-02-11T17:59:03.555Z,31.90
2023-02-11T18:02:07.539Z,32.92
2023-02-11T18:05:11.007Z,35.45
2023-02-11T18:08:14.155Z,31.00
2023-02-11T18:11:17.674Z,43.75
2023-02-11T18:14:23.421Z,39.83
2023-02-11T18:17:28.203Z,37.22
2023-02-11T18:20:35.166Z,37.85
2023-02-11T18:23:38.551Z,41.63
2023-02-11T18:26:42.149Z,44.83
2023-02-11T18:29:46.089Z,30.23
2023-02-11T18:32:55.384Z,29.58
2023-02-11T18:36:00.177Z,34.83
2023-02-11T18:39:07.462Z,34.70
2023-02-11T18:42:10.976Z,32.55
2023-02-11T18:45:15.986Z,32.78
2023-02-11T18:48:20.885Z,30.60
2023-02-11T18:51:24.770Z,28.45
2023-02-11T18:54:28.134Z,28.55
2023-02-11T19:00:51.270Z,29.98
2023-02-11T19:03:58.452Z,29.73
2023-02-11T19:07:04.355Z,28.80
2023-02-11T19:10:08.367Z,30.05
2023-02-11T19:13:11.967Z,29.40
2023-02-11T19:16:20.250Z,30.33
2023-02-11T19:19:28.056Z,32.53
2023-02-11T19:22:32.719Z,31.52
2023-02-11T19:25:38.724Z,31.42
2023-02-11T19:28:44.657Z,90.57
2023-02-11T19:31:48.085Z,45.55
2023-02-11T19:34:52.739Z,36.40
2023-02-11T19:37:55.341Z,34.28
2023-02-11T19:40:59.297Z,33.85
2023-02-11T19:44:03.379Z,32.35
2023-02-11T19:47:07.523Z,36.15
2023-02-11T19:50:12.028Z,45.88
2023-02-11T19:53:15.379Z,38.88
2023-02-11T19:56:21.987Z,43.10
2023-02-11T19:59:25.809Z,47.72
2023-02-11T20:02:30.791Z,40.80
2023-02-11T20:05:40.091Z,31.35
2023-02-11T20:08:44.760Z,38.85
2023-02-11T20:11:49.234Z,35.25
2023-02-11T20:14:52.417Z,32.40
2023-02-11T20:17:57.437Z,32.00
2023-02-11T20:21:06.509Z,31.92
2023-02-11T20:24:10.106Z,34.33
2023-02-11T20:27:14.197Z,39.08
2023-02-11T20:30:22.566Z,35.05
2023-02-11T20:33:26.653Z,33.47
2023-02-11T20:36:39.312Z,31.95
2023-02-11T20:39:45.608Z,30.50
2023-02-11T20:42:53.225Z,33.63
2023-02-11T20:46:04.223Z,31.70
2023-02-11T20:49:09.206Z,31.13
2023-02-11T20:52:14.455Z,31.45
2023-02-11T20:55:17.891Z,34.90
2023-02-11T20:58:24.796Z,34.92
2023-02-11T21:01:34.498Z,32.63
2023-02-11T21:04:42.509Z,32.55
2023-02-11T21:07:45.964Z,31.75
2023-02-11T21:10:49.697Z,30.52
2023-02-11T21:13:53.638Z,34.25
2023-02-11T21:17:00.506Z,32.85
2023-02-11T21:20:04.321Z,31.60
2023-02-11T21:23:08.529Z,31.52
2023-02-11T21:26:12.452Z,29.67
2023-02-11T21:29:16.305Z,29.02
2023-02-11T21:32:20.017Z,31.00
2023-02-11T21:35:23.661Z,29.92
2023-02-11T21:38:30.803Z,29.15
2023-02-11T21:41:35.381Z,28.88
2023-02-11T21:44:38.241Z,32.50
2023-02-11T21:47:40.831Z,48.17
2023-02-11T21:50:46.294Z,30.15
2023-02-11T21:53:58.564Z,28.42
2023-02-11T21:57:03.589Z,29.52
2023-02-11T22:00:07.877Z,29.48
2023-02-11T22:03:12.568Z,27.58
2023-02-11T22:06:19.330Z,32.42
2023-02-11T22:09:22.143Z,29.25
2023-02-11T22:12:25.268Z,37.63
2023-02-11T22:15:27.962Z,31.08
2023-02-11T22:18:30.628Z,37.20
2023-02-11T22:21:33.196Z,34.58
2023-02-11T22:24:38.965Z,31.02
2023-02-11T22:27:41.449Z,30.60
2023-02-11T22:30:43.808Z,28.80
2023-02-11T22:33:46.445Z,31.13
2023-02-11T22:36:53.633Z,59.33
2023-02-11T22:39:55.764Z,64.45
2023-02-11T22:42:57.986Z,31.45
2023-02-11T22:46:01.298Z,36.83
2023-02-11T22:49:04.974Z,46.83
2023-02-11T22:52:07.130Z,29.13
2023-02-11T22:55:09.776Z,60.88
2023-02-11T22:58:11.947Z,43.72
2023-02-11T23:01:14.894Z,31.33
2023-02-11T23:04:19.205Z,29.67
2023-02-11T23:07:21.420Z,38.38
2023-02-11T23:10:23.834Z,37.95
2023-02-11T23:13:25.884Z,38.53
2023-02-11T23:16:34.092Z,45.70
2023-02-11T23:19:36.549Z,49.25
2023-02-11T23:22:38.669Z,30.40
2023-02-11T23:25:44.264Z,37.38
2023-02-11T23:28:46.872Z,32.42
2023-02-11T23:31:50.128Z,30.35
2023-02-11T23:34:52.824Z,34.08
2023-02-11T23:37:55.113Z,35.08
2023-02-11T23:40:57.284Z,31.63
2023-02-11T23:43:59.670Z,35.95
2023-02-11T23:47:01.769Z,40.88
2023-02-11T23:50:04.536Z,42.28
2023-02-11T23:53:06.777Z,36.88
2023-02-11T23:56:16.137Z,38.83
2023-02-11T23:59:18.322Z,39.85
